createdAt,value
2018-11-29T00:00:11.041Z,77.97
2018-11-29T00:02:39.212Z,76.49
2018-11-29T00:05:07.853Z,76.81
2018-11-29T00:07:35.902Z,77.63
2018-11-29T00:10:04.106Z,77.28
2018-11-29T00:12:33.408Z,77.04
2018-11-29T00:15:01.782Z,77.55
2018-11-29T00:17:30.416Z,77.88
2018-11-29T00:19:58.524Z,77.84
2018-11-29T00:22:26.837Z,79.41
2018-11-29T00:24:54.876Z,79.22
2018-11-29T00:27:22.966Z,78.20
2018-11-29T00:29:50.872Z,80.40
2018-11-29T00:32:18.954Z,77.86
2018-11-29T00:34:48.658Z,79.37
2018-11-29T00:37:16.568Z,79.02
2018-11-29T00:39:44.463Z,78.31
2018-11-29T00:42:12.526Z,77.75
2018-11-29T00:44:40.573Z,80.61
2018-11-29T00:47:08.487Z,80.34
2018-11-29T00:49:36.507Z,79.67
2018-11-29T00:52:04.607Z,85.02
2018-11-29T00:54:32.547Z,83.76
2018-11-29T00:57:00.649Z,81.54
2018-11-29T00:59:28.865Z,80.57
2018-11-29T01:02:00.516Z,80.29
2018-11-29T01:04:28.782Z,81.83
2018-11-29T01:06:57.130Z,86.30
2018-11-29T01:09:25.135Z,88.07
2018-11-29T01:11:53.466Z,84.67
2018-11-29T01:14:21.644Z,81.27
2018-11-29T01:16:53.400Z,82.92
2018-11-29T01:19:21.337Z,81.44
2018-11-29T01:21:49.263Z,88.79
2018-11-29T01:24:17.356Z,82.20
2018-11-29T01:26:45.386Z,82.11
2018-11-29T01:29:13.339Z,83.23
2018-11-29T01:31:41.466Z,86.95
2018-11-29T01:34:09.576Z,90.87
2018-11-29T01:36:37.631Z,89.00
2018-11-29T01:39:08.325Z,84.73
2018-11-29T01:41:37.400Z,83.57
2018-11-29T01:44:05.414Z,80.99
2018-11-29T01:46:33.411Z,80.90
2018-11-29T01:49:01.378Z,84.35
2018-11-29T01:54:14.508Z,90.46
2018-11-29T01:56:47.044Z,83.56
2018-11-29T01:59:16.266Z,88.56
2018-11-29T02:01:44.900Z,87.55
2018-11-29T02:04:14.034Z,86.88
2018-11-29T02:06:44.198Z,82.12
2018-11-29T02:09:12.447Z,80.87
2018-11-29T02:11:40.644Z,80.15
2018-11-29T02:14:09.445Z,80.25
2018-11-29T02:16:39.997Z,80.55
2018-11-29T02:19:09.552Z,79.43
2018-11-29T02:24:51.095Z,82.77
2018-11-29T02:27:20.039Z,83.73
2018-11-29T02:29:48.148Z,82.00
2018-11-29T02:32:16.280Z,84.84
2018-11-29T02:34:44.287Z,88.59
2018-11-29T02:37:12.243Z,91.21
2018-11-29T02:39:40.307Z,91.53
2018-11-29T02:42:08.424Z,90.36
2018-11-29T02:44:36.720Z,90.65
2018-11-29T02:47:04.832Z,90.69
2018-11-29T02:49:32.856Z,91.41
2018-11-29T02:52:00.882Z,89.89
2018-11-29T02:54:28.885Z,91.56
2018-11-29T02:56:56.838Z,90.93
2018-11-29T02:59:24.824Z,92.07
2018-11-29T03:01:53.788Z,91.38
2018-11-29T03:04:21.815Z,90.70
2018-11-29T03:06:50.122Z,91.92
2018-11-29T03:09:18.382Z,90.67
2018-11-29T03:11:46.880Z,91.40
2018-11-29T03:14:14.842Z,91.11
2018-11-29T03:16:42.795Z,91.13
2018-11-29T03:19:10.795Z,84.14
2018-11-29T03:21:38.801Z,80.48
2018-11-29T03:24:06.812Z,80.97
2018-11-29T03:26:34.991Z,81.22
2018-11-29T03:29:03.169Z,78.29
2018-11-29T03:31:31.882Z,79.85
2018-11-29T03:34:00.237Z,81.70
2018-11-29T03:36:28.317Z,86.92
2018-11-29T03:38:56.405Z,81.63
2018-11-29T03:41:26.283Z,79.41
2018-11-29T03:43:54.206Z,80.33
2018-11-29T03:46:28.800Z,81.13
2018-11-29T03:48:56.813Z,81.48
2018-11-29T03:51:24.763Z,84.29
2018-11-29T03:53:52.855Z,85.14
2018-11-29T03:56:20.882Z,84.58
2018-11-29T03:58:48.914Z,83.85
2018-11-29T04:01:17.073Z,82.96
2018-11-29T04:03:45.237Z,82.80
2018-11-29T04:06:14.100Z,83.61
2018-11-29T04:08:42.493Z,84.85
2018-11-29T04:11:10.721Z,86.73
2018-11-29T04:13:39.899Z,87.41
2018-11-29T04:16:10.904Z,89.79
2018-11-29T04:18:39.015Z,88.20
2018-11-29T04:21:07.156Z,90.57
2018-11-29T04:23:35.680Z,90.65
2018-11-29T04:26:03.884Z,90.69
2018-11-29T04:28:32.106Z,91.17
2018-11-29T04:31:00.242Z,91.11
2018-11-29T04:33:28.363Z,92.32
2018-11-29T04:35:56.406Z,92.26
2018-11-29T04:38:24.469Z,91.36
2018-11-29T04:40:52.918Z,86.82
2018-11-29T04:43:21.012Z,85.59
2018-11-29T04:45:59.849Z,84.22
2018-11-29T04:48:27.936Z,86.64
2018-11-29T04:50:55.973Z,85.20
2018-11-29T04:53:23.887Z,85.59
2018-11-29T04:55:51.850Z,89.16
2018-11-29T04:58:19.873Z,91.28
2018-11-29T05:00:47.898Z,87.84
2018-11-29T05:03:15.921Z,86.82
2018-11-29T05:05:44.396Z,86.76
2018-11-29T05:08:12.418Z,87.58
2018-11-29T05:10:40.755Z,85.67
2018-11-29T05:13:08.890Z,86.36
2018-11-29T05:15:36.961Z,87.04
2018-11-29T05:18:05.540Z,86.53
2018-11-29T05:20:33.600Z,88.28
2018-11-29T05:23:01.584Z,91.39
2018-11-29T05:25:29.532Z,90.92
2018-11-29T05:27:57.441Z,90.33
2018-11-29T05:30:25.611Z,87.25
2018-11-29T05:32:53.588Z,88.90
2018-11-29T05:35:21.513Z,86.07
2018-11-29T05:37:49.591Z,86.44
2018-11-29T05:40:17.749Z,86.96
2018-11-29T05:42:46.274Z,86.03
2018-11-29T05:45:14.255Z,83.03
2018-11-29T05:47:42.191Z,80.70
2018-11-29T05:50:11.809Z,81.34
2018-11-29T05:52:40.094Z,79.36
2018-11-29T05:55:09.808Z,78.75
2018-11-29T05:57:37.940Z,79.31
2018-11-29T06:00:09.559Z,79.39
2018-11-29T06:02:37.512Z,79.91
2018-11-29T06:05:06.623Z,78.85
2018-11-29T06:07:34.624Z,78.54
2018-11-29T06:10:02.590Z,81.49
2018-11-29T06:12:30.652Z,82.02
2018-11-29T06:14:58.586Z,77.96
2018-11-29T06:17:26.788Z,76.88
2018-11-29T06:19:54.848Z,75.94
2018-11-29T06:22:24.580Z,75.87
2018-11-29T06:24:52.490Z,78.14
2018-11-29T06:27:20.980Z,74.55
2018-11-29T06:29:48.981Z,75.28
2018-11-29T06:32:17.337Z,76.47
2018-11-29T06:34:45.371Z,76.36
2018-11-29T06:37:13.994Z,77.11
2018-11-29T06:39:42.785Z,76.57
2018-11-29T06:42:11.011Z,79.07
2018-11-29T06:44:39.127Z,76.76
2018-11-29T06:47:08.938Z,76.49
2018-11-29T06:49:44.489Z,76.74
2018-11-29T06:52:12.512Z,74.87
2018-11-29T06:54:40.733Z,74.74
2018-11-29T06:57:08.989Z,74.85
2018-11-29T06:59:37.064Z,76.06
2018-11-29T07:02:05.491Z,76.25
2018-11-29T07:04:34.203Z,77.26
2018-11-29T07:07:02.433Z,80.14
2018-11-29T07:09:30.624Z,74.55
2018-11-29T07:11:59.304Z,74.88
2018-11-29T07:14:32.582Z,75.67
2018-11-29T07:17:16.178Z,77.43
2018-11-29T07:19:44.981Z,73.84
2018-11-29T07:22:13.079Z,75.93
2018-11-29T07:24:41.027Z,73.51
2018-11-29T07:27:08.941Z,74.23
2018-11-29T07:29:36.952Z,73.12
2018-11-29T07:32:05.733Z,75.33
2018-11-29T07:34:38.808Z,72.41
2018-11-29T07:37:07.571Z,76.52
2018-11-29T07:39:37.386Z,71.58
2018-11-29T07:42:05.660Z,76.26
2018-11-29T07:44:34.413Z,74.91
2018-11-29T07:47:03.332Z,75.61
2018-11-29T07:49:31.523Z,71.37
2018-11-29T07:51:59.856Z,70.05
2018-11-29T07:54:27.885Z,73.35
2018-11-29T07:56:56.031Z,73.08
2018-11-29T07:59:24.189Z,70.31
2018-11-29T08:01:54.044Z,76.07
2018-11-29T08:04:21.954Z,74.78
2018-11-29T08:06:49.950Z,72.07
2018-11-29T08:09:17.992Z,71.42
2018-11-29T08:11:46.040Z,74.61
2018-11-29T08:14:14.788Z,72.57
2018-11-29T08:16:42.909Z,70.65
2018-11-29T08:19:10.891Z,72.90
2018-11-29T08:21:39.025Z,74.79
2018-11-29T08:24:07.321Z,75.13
2018-11-29T08:26:35.474Z,76.14
2018-11-29T08:29:03.566Z,69.89
2018-11-29T08:31:31.561Z,69.62
2018-11-29T08:33:59.643Z,73.30
2018-11-29T08:36:27.709Z,71.66
2018-11-29T08:38:56.552Z,73.42
2018-11-29T08:41:24.552Z,74.52
2018-11-29T08:43:55.276Z,73.20
2018-11-29T08:46:26.379Z,71.72
2018-11-29T08:48:56.075Z,70.89
2018-11-29T08:51:25.274Z,69.57
2018-11-29T08:53:53.330Z,69.47
2018-11-29T08:56:22.232Z,67.81
2018-11-29T08:58:50.522Z,67.62
2018-11-29T09:01:18.619Z,68.00
2018-11-29T09:03:46.656Z,67.38
2018-11-29T09:06:14.627Z,66.89
2018-11-29T09:08:42.714Z,67.29
2018-11-29T09:11:11.981Z,68.29
2018-11-29T09:13:42.274Z,69.68
2018-11-29T09:16:11.697Z,66.70
2018-11-29T09:18:39.829Z,67.84
2018-11-29T09:21:08.329Z,66.53
2018-11-29T09:23:50.908Z,65.89
2018-11-29T09:26:19.989Z,67.67
2018-11-29T09:28:50.056Z,72.29
2018-11-29T09:31:20.015Z,66.12
2018-11-29T09:33:48.088Z,65.19
2018-11-29T09:36:16.144Z,65.44
2018-11-29T09:38:44.208Z,67.01
2018-11-29T09:41:13.274Z,69.89
2018-11-29T09:43:41.341Z,66.88
2018-11-29T09:46:09.420Z,65.04
2018-11-29T09:48:37.693Z,67.21
2018-11-29T09:51:06.624Z,67.04
2018-11-29T09:53:34.832Z,67.75
2018-11-29T09:56:03.980Z,67.63
2018-11-29T09:58:31.931Z,67.41
2018-11-29T10:00:59.975Z,65.98
2018-11-29T10:03:29.300Z,64.92
2018-11-29T10:05:57.688Z,65.72
2018-11-29T10:08:26.740Z,65.91
2018-11-29T10:10:55.125Z,66.24
2018-11-29T10:13:24.456Z,66.78
2018-11-29T10:15:52.977Z,67.19
2018-11-29T10:18:21.354Z,67.09
2018-11-29T10:20:49.397Z,66.07
2018-11-29T10:24:00.303Z,67.02
2018-11-29T10:26:28.434Z,67.63
2018-11-29T10:28:56.496Z,67.62
2018-11-29T10:31:25.348Z,66.54
2018-11-29T10:33:53.334Z,66.63
2018-11-29T10:36:21.501Z,66.97
2018-11-29T10:38:49.955Z,67.55
2018-11-29T10:41:20.279Z,67.49
2018-11-29T10:43:49.243Z,66.75
2018-11-29T10:46:17.467Z,67.20
2018-11-29T10:48:49.494Z,66.09
2018-11-29T10:51:17.560Z,67.00
2018-11-29T10:53:46.298Z,66.72
2018-11-29T10:56:14.284Z,67.35
2018-11-29T10:58:43.594Z,69.51
2018-11-29T11:01:16.853Z,68.87
2018-11-29T11:03:45.097Z,68.57
2018-11-29T11:06:14.075Z,67.29
2018-11-29T11:08:42.449Z,68.66
2018-11-29T11:11:12.233Z,68.68
2018-11-29T11:13:44.293Z,68.93
2018-11-29T11:16:12.605Z,69.04
2018-11-29T11:21:24.387Z,68.69
2018-11-29T11:23:59.197Z,68.37
2018-11-29T11:26:27.920Z,69.53
2018-11-29T11:28:55.896Z,71.59
2018-11-29T11:31:30.752Z,71.64
2018-11-29T11:33:53.660Z,72.05
2018-11-29T11:36:21.690Z,75.69
2018-11-29T11:38:51.192Z,73.98
2018-11-29T11:41:22.622Z,73.17
2018-11-29T11:43:53.154Z,76.60
2018-11-29T11:46:21.836Z,76.08
2018-11-29T11:48:49.849Z,75.62
2018-11-29T11:51:18.152Z,74.48
2018-11-29T11:53:47.554Z,72.81
2018-11-29T11:56:17.263Z,72.49
2018-11-29T11:58:45.619Z,72.26
2018-11-29T12:01:14.524Z,74.03
2018-11-29T12:03:42.716Z,71.64
2018-11-29T12:06:10.996Z,72.89
2018-11-29T12:08:39.207Z,75.31
2018-11-29T12:11:07.848Z,72.52
2018-11-29T12:13:35.951Z,71.35
2018-11-29T12:16:05.402Z,71.47
2018-11-29T12:18:33.481Z,72.06
2018-11-29T12:21:01.503Z,73.16
2018-11-29T12:23:29.889Z,72.96
2018-11-29T12:25:57.945Z,73.86
2018-11-29T12:28:25.939Z,72.78
2018-11-29T12:30:54.624Z,74.03
2018-11-29T12:33:24.553Z,73.81
2018-11-29T12:35:54.957Z,75.87
2018-11-29T12:38:23.085Z,72.32
2018-11-29T12:40:58.400Z,74.71
2018-11-29T12:43:27.071Z,74.99
2018-11-29T12:45:55.180Z,77.49
2018-11-29T12:48:23.692Z,73.58
2018-11-29T12:50:52.239Z,73.23
2018-11-29T12:53:35.204Z,73.75
2018-11-29T12:56:03.399Z,72.97
2018-11-29T12:58:31.412Z,73.97
2018-11-29T13:00:59.412Z,75.04
2018-11-29T13:03:27.419Z,75.36
2018-11-29T13:05:55.380Z,75.08
2018-11-29T13:08:24.470Z,75.02
2018-11-29T13:10:52.825Z,74.00
2018-11-29T13:13:20.952Z,74.58
2018-11-29T13:15:48.908Z,75.64
2018-11-29T13:18:17.754Z,74.26
2018-11-29T13:20:45.759Z,73.71
2018-11-29T13:23:14.381Z,74.24
2018-11-29T13:25:42.999Z,74.91
2018-11-29T13:28:11.848Z,74.72
2018-11-29T13:30:46.431Z,73.44
2018-11-29T13:33:14.781Z,73.75
2018-11-29T13:35:42.806Z,75.66
2018-11-29T13:38:12.158Z,73.50
2018-11-29T13:40:41.473Z,74.53
2018-11-29T13:43:10.892Z,72.98
2018-11-29T13:45:39.046Z,73.22
2018-11-29T13:48:09.742Z,74.15
2018-11-29T13:50:40.401Z,72.76
2018-11-29T13:53:08.687Z,75.10
2018-11-29T13:55:36.876Z,74.84
2018-11-29T13:58:05.721Z,73.61
2018-11-29T14:00:34.064Z,73.18
2018-11-29T14:03:06.254Z,73.48
2018-11-29T14:05:34.939Z,75.43
2018-11-29T14:08:04.008Z,73.95
2018-11-29T14:10:32.579Z,74.49
2018-11-29T14:13:01.486Z,74.74
2018-11-29T14:15:29.633Z,73.97
2018-11-29T14:17:57.717Z,74.63
2018-11-29T14:20:26.834Z,73.30
2018-11-29T14:22:59.634Z,72.49
2018-11-29T14:25:29.608Z,72.88
2018-11-29T14:27:58.912Z,73.04
2018-11-29T14:30:28.931Z,73.23
2018-11-29T14:32:57.984Z,72.98
2018-11-29T14:35:25.973Z,74.67
2018-11-29T14:37:54.036Z,73.29
2018-11-29T14:40:22.930Z,74.77
2018-11-29T14:42:51.056Z,72.98
2018-11-29T14:45:23.996Z,74.93
2018-11-29T14:47:53.136Z,73.90
2018-11-29T14:50:25.950Z,74.55
2018-11-29T14:52:54.211Z,76.88
2018-11-29T14:55:22.360Z,74.24
2018-11-29T14:57:58.012Z,75.81
2018-11-29T15:00:26.936Z,74.70
2018-11-29T15:02:56.156Z,75.79
2018-11-29T15:05:25.476Z,74.92
2018-11-29T15:07:53.397Z,74.92
2018-11-29T15:10:22.116Z,75.35
2018-11-29T15:12:50.128Z,74.28
2018-11-29T15:15:18.332Z,73.73
2018-11-29T15:17:46.971Z,74.70
2018-11-29T15:20:22.108Z,74.98
2018-11-29T15:22:52.326Z,73.89
2018-11-29T15:25:20.549Z,73.85
2018-11-29T15:27:48.809Z,73.49
2018-11-29T15:30:18.058Z,73.67
2018-11-29T15:32:46.114Z,73.13
2018-11-29T15:35:14.077Z,72.74
2018-11-29T15:37:42.092Z,73.46
2018-11-29T15:40:11.619Z,74.96
2018-11-29T15:42:40.328Z,74.02
2018-11-29T15:45:15.032Z,73.83
2018-11-29T15:47:43.921Z,73.39
2018-11-29T15:50:13.921Z,74.07
2018-11-29T15:52:42.141Z,73.07
2018-11-29T15:55:13.280Z,73.94
2018-11-29T15:57:41.341Z,74.21
2018-11-29T16:00:12.967Z,72.41
2018-11-29T16:02:42.344Z,72.62
2018-11-29T16:05:11.271Z,72.28
2018-11-29T16:07:40.864Z,73.07
2018-11-29T16:10:11.931Z,72.63
2018-11-29T16:12:41.211Z,72.25
2018-11-29T16:15:13.941Z,73.39
2018-11-29T16:17:42.229Z,73.50
2018-11-29T16:20:21.980Z,72.44
2018-11-29T16:22:50.060Z,71.68
2018-11-29T16:25:18.135Z,71.36
2018-11-29T16:27:46.464Z,72.71
2018-11-29T16:30:22.649Z,70.90
2018-11-29T16:32:50.605Z,71.78
2018-11-29T16:35:20.892Z,72.23
2018-11-29T16:37:49.190Z,72.30
2018-11-29T16:40:17.337Z,72.15
2018-11-29T16:42:45.613Z,71.00
2018-11-29T16:45:14.137Z,71.36
2018-11-29T16:47:42.812Z,71.07
2018-11-29T16:50:14.142Z,70.99
2018-11-29T16:52:42.203Z,71.29
2018-11-29T16:55:10.977Z,71.14
2018-11-29T16:57:41.021Z,71.20
2018-11-29T17:00:25.915Z,71.54
2018-11-29T17:02:54.161Z,70.95
2018-11-29T17:05:22.581Z,70.24
2018-11-29T17:07:50.692Z,70.93
2018-11-29T17:10:20.057Z,70.16
2018-11-29T17:12:51.428Z,71.07
2018-11-29T17:15:19.726Z,71.70
2018-11-29T17:17:48.794Z,72.84
2018-11-29T17:20:18.048Z,74.12
2018-11-29T17:22:48.477Z,73.04
2018-11-29T17:25:18.375Z,72.70
2018-11-29T17:27:47.117Z,70.73
2018-11-29T17:30:24.582Z,70.50
2018-11-29T17:32:55.867Z,70.98
2018-11-29T17:35:24.756Z,70.53
2018-11-29T17:37:54.825Z,70.75
2018-11-29T17:40:22.979Z,72.28
2018-11-29T17:42:52.544Z,74.45
2018-11-29T17:45:22.581Z,71.94
2018-11-29T17:47:51.992Z,71.23
2018-11-29T17:50:24.262Z,73.67
2018-11-29T17:52:56.566Z,73.17
2018-11-29T17:55:25.353Z,71.91
2018-11-29T17:57:53.286Z,71.29
2018-11-29T18:00:22.632Z,71.53
2018-11-29T18:02:50.757Z,72.10
2018-11-29T18:05:19.416Z,72.49
2018-11-29T18:07:47.425Z,73.96
2018-11-29T18:10:19.503Z,71.62
2018-11-29T18:12:49.892Z,71.63
2018-11-29T18:15:20.230Z,71.74
2018-11-29T18:17:48.375Z,72.19
2018-11-29T18:20:16.521Z,72.42
2018-11-29T18:22:47.588Z,72.78
2018-11-29T18:25:16.309Z,73.79
2018-11-29T18:27:49.733Z,72.35
2018-11-29T18:30:19.165Z,71.84
2018-11-29T18:32:49.527Z,73.18
2018-11-29T18:35:18.639Z,72.46
2018-11-29T18:37:48.061Z,73.18
2018-11-29T18:40:17.788Z,73.60
2018-11-29T18:42:53.405Z,73.07
2018-11-29T18:45:21.267Z,71.93
2018-11-29T18:47:50.312Z,71.08
2018-11-29T18:50:21.439Z,74.25
2018-11-29T18:52:49.809Z,72.51
2018-11-29T18:55:18.678Z,74.23
2018-11-29T18:57:46.985Z,74.82
2018-11-29T19:00:20.284Z,72.70
2018-11-29T19:02:48.368Z,73.49
2018-11-29T19:05:16.374Z,73.60
2018-11-29T19:07:44.557Z,71.11
2018-11-29T19:10:14.264Z,71.28
2018-11-29T19:12:58.594Z,70.25
2018-11-29T19:15:26.905Z,70.54
2018-11-29T19:17:54.960Z,70.50
2018-11-29T19:20:23.276Z,69.61
2018-11-29T19:22:51.534Z,69.37
2018-11-29T19:25:20.240Z,73.02
2018-11-29T19:27:49.485Z,70.88
2018-11-29T19:30:29.753Z,69.22
2018-11-29T19:33:09.911Z,70.40
2018-11-29T19:35:38.297Z,69.86
2018-11-29T19:38:06.516Z,73.22
2018-11-29T19:40:34.681Z,70.69
2018-11-29T19:43:03.054Z,69.74
2018-11-29T19:45:32.135Z,69.77
2018-11-29T19:48:01.291Z,73.09
2018-11-29T19:50:32.739Z,73.11
2018-11-29T19:53:01.920Z,71.33
2018-11-29T19:55:32.512Z,70.40
2018-11-29T19:58:02.283Z,70.43
2018-11-29T20:00:30.636Z,74.23
2018-11-29T20:02:59.992Z,71.73
2018-11-29T20:05:28.057Z,70.66
2018-11-29T20:07:56.386Z,70.12
2018-11-29T20:10:24.558Z,70.63
2018-11-29T20:13:03.593Z,71.36
2018-11-29T20:15:31.838Z,71.15
2018-11-29T20:18:07.136Z,73.34
2018-11-29T20:20:35.263Z,72.14
2018-11-29T20:23:03.410Z,74.39
2018-11-29T20:25:31.690Z,72.42
2018-11-29T20:28:00.471Z,75.38
2018-11-29T20:30:29.968Z,73.40
2018-11-29T20:32:58.469Z,79.08
2018-11-29T20:35:27.814Z,75.84
2018-11-29T20:37:56.564Z,81.04
2018-11-29T20:40:28.671Z,75.88
2018-11-29T20:42:58.102Z,81.71
2018-11-29T20:45:47.317Z,80.27
2018-11-29T20:48:17.640Z,76.85
2018-11-29T20:50:45.952Z,78.89
2018-11-29T20:53:15.658Z,73.05
2018-11-29T20:55:55.155Z,74.68
2018-11-29T20:58:32.030Z,73.10
2018-11-29T21:01:00.492Z,75.31
2018-11-29T21:03:28.838Z,78.54
2018-11-29T21:06:04.135Z,76.11
2018-11-29T21:08:33.244Z,74.37
2018-11-29T21:11:01.529Z,72.77
2018-11-29T21:13:29.693Z,72.04
2018-11-29T21:15:57.891Z,73.70
2018-11-29T21:18:25.924Z,69.88
2018-11-29T21:20:53.997Z,73.02
2018-11-29T21:23:22.031Z,76.85
2018-11-29T21:25:50.069Z,77.90
2018-11-29T21:28:18.066Z,73.63
2018-11-29T21:30:46.012Z,77.13
2018-11-29T21:33:20.688Z,72.85
2018-11-29T21:35:48.930Z,73.00
2018-11-29T21:38:18.173Z,71.98
2018-11-29T21:40:50.851Z,72.12
2018-11-29T21:43:18.952Z,72.44
2018-11-29T21:45:47.199Z,74.81
2018-11-29T21:48:15.172Z,72.00
2018-11-29T21:50:43.334Z,75.40
2018-11-29T21:53:11.720Z,72.07
2018-11-29T21:55:40.332Z,73.12
2018-11-29T21:58:08.405Z,72.03
2018-11-29T22:00:36.384Z,71.89
2018-11-29T22:03:04.541Z,71.49
2018-11-29T22:05:33.178Z,70.94
2018-11-29T22:08:01.265Z,70.49
2018-11-29T22:10:29.317Z,69.58
2018-11-29T22:12:57.280Z,69.93
2018-11-29T22:15:25.357Z,70.49
2018-11-29T22:18:02.647Z,68.48
2018-11-29T22:20:31.756Z,71.20
2018-11-29T22:23:00.101Z,69.90
2018-11-29T22:25:28.376Z,68.49
2018-11-29T22:27:57.115Z,67.79
2018-11-29T22:30:25.392Z,67.44
2018-11-29T22:32:54.695Z,67.20
2018-11-29T22:35:23.301Z,66.22
2018-11-29T22:37:55.302Z,65.90
2018-11-29T22:40:24.374Z,66.45
2018-11-29T22:42:52.802Z,67.00
2018-11-29T22:45:20.868Z,67.22
2018-11-29T22:47:50.178Z,67.60
2018-11-29T22:50:18.970Z,67.02
2018-11-29T22:52:48.155Z,68.85
2018-11-29T22:55:16.281Z,66.10
2018-11-29T22:57:44.736Z,66.78
2018-11-29T23:00:17.121Z,65.95
2018-11-29T23:02:45.649Z,70.10
2018-11-29T23:05:13.992Z,65.87
2018-11-29T23:07:42.056Z,64.58
2018-11-29T23:10:10.928Z,65.52
2018-11-29T23:12:39.572Z,65.88
2018-11-29T23:15:11.033Z,63.76
2018-11-29T23:17:39.101Z,65.28
2018-11-29T23:20:11.915Z,64.38
2018-11-29T23:22:40.302Z,64.96
2018-11-29T23:25:11.562Z,63.82
2018-11-29T23:27:39.686Z,65.90
2018-11-29T23:30:11.152Z,68.42
2018-11-29T23:32:39.425Z,65.86
2018-11-29T23:35:07.394Z,66.41
2018-11-29T23:37:35.307Z,67.39
2018-11-29T23:40:03.789Z,66.61
2018-11-29T23:42:31.731Z,66.56
2018-11-29T23:44:59.669Z,65.79
2018-11-29T23:47:27.957Z,67.49
2018-11-29T23:49:55.949Z,69.76
2018-11-29T23:52:24.320Z,70.58
2018-11-29T23:54:52.529Z,69.94
2018-11-29T23:57:20.794Z,70.37
2018-11-29T23:59:48.828Z,73.32
